createdAt,value
2023-03-03T00:07:37.104Z,6.30
2023-03-03T00:12:44.989Z,6.40
2023-03-03T00:17:37.187Z,6.30
2023-03-03T00:22:37.658Z,6.40
2023-03-03T00:27:37.227Z,6.30
2023-03-03T00:47:39.779Z,6.20
2023-03-03T00:52:39.623Z,6.10
2023-03-03T00:57:37.213Z,6.00
2023-03-03T01:02:37.360Z,6.10
2023-03-03T01:07:37.268Z,6.00
2023-03-03T01:12:38.189Z,6.10
2023-03-03T01:17:38.921Z,6.00
2023-03-03T01:22:37.405Z,6.10
2023-03-03T01:27:37.802Z,6.00
2023-03-03T01:32:37.389Z,5.90
2023-03-03T01:37:37.396Z,5.80
2023-03-03T01:57:43.033Z,5.70
2023-03-03T02:32:37.524Z,5.80
2023-03-03T02:37:37.535Z,5.70
2023-03-03T02:47:37.555Z,5.60
2023-03-03T02:52:37.558Z,5.70
2023-03-03T03:02:37.756Z,5.60
2023-03-03T03:17:38.267Z,5.50
2023-03-03T03:22:37.683Z,5.60
2023-03-03T03:32:37.733Z,5.40
2023-03-03T03:42:38.581Z,5.30
2023-03-03T03:47:37.679Z,5.20
2023-03-03T03:57:37.833Z,5.10
2023-03-03T04:02:37.903Z,5.00
2023-03-03T04:07:37.829Z,4.90
2023-03-03T04:12:37.730Z,5.00
2023-03-03T04:27:37.833Z,4.80
2023-03-03T04:32:37.823Z,4.70
2023-03-03T04:37:37.979Z,4.60
2023-03-03T04:42:38.003Z,4.40
2023-03-03T04:47:37.936Z,4.30
2023-03-03T04:52:37.925Z,4.20
2023-03-03T04:57:37.893Z,4.10
2023-03-03T05:07:38.036Z,3.90
2023-03-03T05:27:38.500Z,3.80
2023-03-03T05:37:45.765Z,3.70
2023-03-03T05:47:38.121Z,3.60
2023-03-03T06:07:38.297Z,3.50
2023-03-03T06:12:38.205Z,3.40
2023-03-03T06:17:38.290Z,3.30
2023-03-03T07:12:38.375Z,3.40
2023-03-03T07:17:48.441Z,3.50
2023-03-03T07:22:38.193Z,3.60
2023-03-03T07:27:38.218Z,3.70
2023-03-03T07:32:42.645Z,3.90
2023-03-03T07:37:41.405Z,4.00
2023-03-03T07:42:39.963Z,4.10
2023-03-03T07:47:38.620Z,4.30
2023-03-03T07:52:41.056Z,4.50
2023-03-03T07:57:38.878Z,4.70
2023-03-03T08:02:40.271Z,5.00
2023-03-03T08:07:38.399Z,5.10
2023-03-03T08:12:41.195Z,5.40
2023-03-03T08:17:38.709Z,5.50
2023-03-03T08:22:38.372Z,5.70
2023-03-03T08:27:38.344Z,5.80
2023-03-03T08:32:38.502Z,5.90
2023-03-03T08:37:38.458Z,6.10
2023-03-03T08:42:38.472Z,6.20
2023-03-03T08:47:38.474Z,6.30
2023-03-03T08:52:38.694Z,6.40
2023-03-03T08:57:38.545Z,6.50
2023-03-03T09:02:38.664Z,6.60
2023-03-03T09:07:38.829Z,6.70
2023-03-03T09:12:41.146Z,6.80
2023-03-03T09:17:38.552Z,6.90
2023-03-03T09:22:38.586Z,7.00
2023-03-03T09:27:39.951Z,7.20
2023-03-03T09:32:38.755Z,7.30
2023-03-03T09:37:40.130Z,7.40
2023-03-03T09:42:51.772Z,7.60
2023-03-03T09:47:45.790Z,7.70
2023-03-03T09:52:50.795Z,7.90
2023-03-03T09:58:09.652Z,8.00
2023-03-03T10:02:57.795Z,8.20
2023-03-03T10:07:48.561Z,8.30
2023-03-03T10:12:55.974Z,8.50
2023-03-03T10:22:49.816Z,8.60
2023-03-03T10:27:56.680Z,8.80
2023-03-03T10:32:44.853Z,8.90
2023-03-03T10:37:56.515Z,9.10
2023-03-03T10:42:48.253Z,9.60
2023-03-03T10:47:54.555Z,9.70
2023-03-03T10:52:50.014Z,10.00
2023-03-03T10:57:52.663Z,9.90
2023-03-03T11:07:45.329Z,10.10
2023-03-03T11:12:38.769Z,10.40
2023-03-03T11:17:49.772Z,10.80
2023-03-03T11:22:52.547Z,11.30
2023-03-03T11:27:49.761Z,11.00
2023-03-03T11:32:49.825Z,10.80
2023-03-03T11:37:42.442Z,10.50
2023-03-03T11:42:56.214Z,10.30
2023-03-03T11:47:48.959Z,10.10
2023-03-03T11:52:46.793Z,10.20
2023-03-03T11:57:51.154Z,10.40
2023-03-03T12:02:50.790Z,10.80
2023-03-03T12:07:50.156Z,10.90
2023-03-03T12:12:39.993Z,11.30
2023-03-03T12:17:57.550Z,11.40
2023-03-03T12:27:48.953Z,11.00
2023-03-03T12:32:49.016Z,10.80
2023-03-03T12:37:49.958Z,10.50
2023-03-03T12:42:46.335Z,10.40
2023-03-03T12:52:53.206Z,10.30
2023-03-03T13:12:47.565Z,10.20
2023-03-03T13:17:49.469Z,10.10
2023-03-03T13:22:45.660Z,10.20
2023-03-03T13:27:42.863Z,10.30
2023-03-03T13:32:50.106Z,10.40
2023-03-03T14:02:52.792Z,10.30
2023-03-03T14:07:44.923Z,10.20
2023-03-03T14:12:47.327Z,10.30
2023-03-03T14:17:56.795Z,10.10
2023-03-03T14:22:43.636Z,10.30
2023-03-03T14:27:46.645Z,10.50
2023-03-03T14:42:48.656Z,10.60
2023-03-03T14:47:44.625Z,10.50
2023-03-03T14:52:39.489Z,10.60
2023-03-03T14:57:45.219Z,10.50
2023-03-03T15:02:43.502Z,10.40
2023-03-03T15:07:39.536Z,10.20
2023-03-03T15:12:40.749Z,10.10
2023-03-03T15:17:43.173Z,10.00
2023-03-03T15:22:46.319Z,10.20
2023-03-03T15:27:45.972Z,10.30
2023-03-03T15:32:48.080Z,10.20
2023-03-03T15:37:59.332Z,10.00
2023-03-03T15:52:39.488Z,10.10
2023-03-03T15:57:59.409Z,10.00
2023-03-03T16:02:56.022Z,9.90
2023-03-03T16:12:48.495Z,9.70
2023-03-03T16:17:53.692Z,9.50
2023-03-03T16:22:40.927Z,9.60
2023-03-03T16:27:39.571Z,9.70
2023-03-03T16:32:46.575Z,9.60
2023-03-03T16:37:49.893Z,9.50
2023-03-03T16:47:58.984Z,9.40
2023-03-03T16:57:46.988Z,9.30
2023-03-03T17:07:43.505Z,9.20
2023-03-03T17:22:56.858Z,9.30
2023-03-03T17:27:49.516Z,9.20
2023-03-03T17:32:50.778Z,9.10
2023-03-03T17:37:45.457Z,9.00
2023-03-03T17:47:59.048Z,9.10
2023-03-03T17:52:51.586Z,9.00
2023-03-03T17:57:57.360Z,8.90
2023-03-03T18:02:55.900Z,9.00
2023-03-03T18:17:50.935Z,8.90
2023-03-03T18:27:41.643Z,9.00
2023-03-03T18:42:41.775Z,8.80
2023-03-03T18:47:59.965Z,8.90
2023-03-03T19:02:49.849Z,9.00
2023-03-03T19:07:40.010Z,8.90
2023-03-03T19:12:45.607Z,9.10
2023-03-03T19:22:45.870Z,9.20
2023-03-03T19:32:57.409Z,9.10
2023-03-03T19:37:51.473Z,9.00
2023-03-03T19:42:55.345Z,9.10
2023-03-03T19:52:50.028Z,9.20
2023-03-03T19:57:50.575Z,9.10
2023-03-03T20:02:53.247Z,9.30
2023-03-03T20:07:43.452Z,9.20
2023-03-03T20:27:51.191Z,9.10
2023-03-03T20:32:44.561Z,9.20
2023-03-03T20:47:46.923Z,9.00
2023-03-03T20:52:52.522Z,9.10
2023-03-03T21:03:00.240Z,9.00
2023-03-03T21:07:51.785Z,9.10
2023-03-03T21:22:40.349Z,9.20
2023-03-03T21:27:40.388Z,9.10
2023-03-03T21:32:42.483Z,9.00
2023-03-03T21:37:42.067Z,8.90
2023-03-03T21:42:41.580Z,9.00
2023-03-03T21:52:40.444Z,9.10
2023-03-03T21:57:40.433Z,9.00
2023-03-03T22:01:54.738Z,9.00
2023-03-03T22:07:40.467Z,8.90
2023-03-03T22:17:42.116Z,8.80
2023-03-03T22:27:40.507Z,8.90
2023-03-03T22:37:40.544Z,8.80
2023-03-03T22:42:40.599Z,8.90
2023-03-03T23:12:40.781Z,9.00
2023-03-03T23:27:41.984Z,8.90
2023-03-03T23:32:41.220Z,9.00
2023-03-03T23:37:40.899Z,8.90
2023-03-03T23:42:41.038Z,8.80
2023-03-03T23:47:40.859Z,8.90
